TimeEDT,TemperatureF,Dew PointF,Humidity,Sea Level PressureIn,VisibilityMPH,Wind Direction,Wind SpeedMPH,Gust SpeedMPH,PrecipitationIn,Events,Conditions,WindDirDegrees,DateUTC
12:52 AM,71.6,64.4,78,29.73,10.0,South,15.0,24.2,N/A,,Mostly Cloudy,190,2013-05-23 04:52:00
12:54 AM,72.0,64.9,78,29.73,10.0,South,16.1,24.2,N/A,,Mostly Cloudy,190,2013-05-23 04:54:00
1:03 AM,73.4,64.4,73,29.75,10.0,SSW,12.7,23.0,N/A,Thunderstorm,Scattered Clouds,200,2013-05-23 05:03:00
1:18 AM,71.6,66.2,83,29.75,9.0,SSW,11.5,19.6,0.01,Rain-Thunderstorm,Thunderstorms and Rain,210,2013-05-23 05:18:00
1:54 AM,70.0,66.9,90,29.74,7.0,South,11.5,16.1,0.12,Rain-Thunderstorm,Light Thunderstorms and Rain,180,2013-05-23 05:54:00
2:09 AM,69.8,66.2,88,29.73,10.0,South,3.5,-,0.00,Rain,Light Rain,180,2013-05-23 06:09:00
2:54 AM,69.1,64.9,87,29.73,10.0,SE,5.8,-,0.00,,Overcast,130,2013-05-23 06:54:00
3:54 AM,70.0,66.9,90,29.73,10.0,SE,3.5,-,0.00,,Scattered Clouds,140,2013-05-23 07:54:00
4:54 AM,70.0,66.9,90,29.71,8.0,Calm,Calm,-,N/A,,Mostly Cloudy,0,2013-05-23 08:54:00
5:54 AM,70.0,66.0,87,29.73,10.0,South,8.1,-,N/A,,Mostly Cloudy,190,2013-05-23 09:54:00
6:54 AM,70.0,63.0,78,29.73,10.0,South,10.4,-,N/A,,Mostly Cloudy,180,2013-05-23 10:54:00
7:54 AM,70.0,63.0,78,29.75,10.0,South,12.7,-,N/A,,Mostly Cloudy,190,2013-05-23 11:54:00
8:54 AM,70.0,62.1,76,29.75,10.0,South,15.0,23.0,N/A,,Overcast,180,2013-05-23 12:54:00
9:54 AM,69.1,62.1,78,29.75,10.0,South,15.0,-,0.00,,Overcast,180,2013-05-23 13:54:00
10:54 AM,71.1,62.1,73,29.75,10.0,South,16.1,25.3,0.01,,Overcast,190,2013-05-23 14:54:00
11:54 AM,70.0,64.0,81,29.75,6.0,South,6.9,-,0.03,Rain,Rain,180,2013-05-23 15:54:00
12:54 PM,72.0,64.9,78,29.74,10.0,South,10.4,-,0.04,,Mostly Cloudy,180,2013-05-23 16:54:00
1:54 PM,77.0,63.0,62,29.72,10.0,South,17.3,29.9,N/A,,Mostly Cloudy,190,2013-05-23 17:54:00
2:54 PM,77.0,62.1,60,29.69,10.0,South,12.7,23.0,N/A,,Mostly Cloudy,190,2013-05-23 18:54:00
3:54 PM,78.1,63.0,60,29.68,10.0,South,17.3,25.3,N/A,,Scattered Clouds,180,2013-05-23 19:54:00
4:02 PM,78.8,62.6,57,29.68,10.0,South,19.6,27.6,N/A,Thunderstorm,Scattered Clouds,170,2013-05-23 20:02:00
4:19 PM,68.0,60.8,78,29.72,10.0,West,11.5,32.2,N/A,,Mostly Cloudy,270,2013-05-23 20:19:00
4:39 PM,64.4,60.8,88,29.73,1.5,West,4.6,-,0.13,Rain,Heavy Rain,280,2013-05-23 20:39:00
4:41 PM,64.4,60.8,88,29.72,0.8,West,5.8,-,0.14,Rain,Heavy Rain,260,2013-05-23 20:41:00
4:51 PM,64.4,60.8,88,29.71,1.5,Calm,Calm,-,0.39,Rain,Light Rain,0,2013-05-23 20:51:00
4:54 PM,64.9,62.1,90,29.71,3.0,SSE,5.8,-,0.40,Rain,Light Rain,160,2013-05-23 20:54:00
5:36 PM,64.4,60.8,88,29.72,8.0,South,5.8,-,0.03,Rain-Thunderstorm,Light Thunderstorms and Rain,180,2013-05-23 21:36:00
5:47 PM,64.4,60.8,88,29.73,2.5,South,6.9,-,0.12,Rain,Heavy Rain,180,2013-05-23 21:47:00
5:54 PM,64.0,61.0,90,29.71,1.8,SE,8.1,-,0.22,Rain,Heavy Rain,130,2013-05-23 21:54:00
5:59 PM,64.4,60.8,88,29.71,3.0,SE,5.8,-,0.04,Rain,Light Rain,130,2013-05-23 21:59:00
6:54 PM,64.0,62.1,93,29.72,10.0,East,6.9,-,0.04,,Overcast,90,2013-05-23 22:54:00
7:43 PM,64.4,62.6,94,29.71,10.0,ESE,4.6,-,0.05,Thunderstorm,Overcast,110,2013-05-23 23:43:00
7:54 PM,64.9,62.1,90,29.73,3.0,South,15.0,21.9,0.12,Rain,Rain,180,2013-05-23 23:54:00
7:59 PM,64.4,62.6,94,29.72,1.8,Variable,4.6,21.9,0.11,Rain,Heavy Rain,0,2013-05-23 23:59:00
8:09 PM,64.4,62.6,94,29.72,1.2,WSW,4.6,-,0.47,Rain,Heavy Rain,240,2013-05-24 00:09:00
8:16 PM,62.6,60.8,94,29.72,1.8,South,5.8,-,0.57,Rain,Heavy Rain,170,2013-05-24 00:16:00
8:26 PM,62.6,60.8,94,29.73,1.5,South,3.5,-,0.86,Rain-Thunderstorm,Heavy Thunderstorms and Rain,180,2013-05-24 00:26:00
8:39 PM,62.6,62.6,100,29.73,3.0,SSE,10.4,-,1.13,Rain-Thunderstorm,Thunderstorms and Rain,150,2013-05-24 00:39:00
8:54 PM,63.0,61.0,93,29.73,9.0,SSE,6.9,-,1.26,Rain-Thunderstorm,Light Thunderstorms and Rain,150,2013-05-24 00:54:00
9:06 PM,62.6,60.8,94,29.72,10.0,East,5.8,-,0.00,Rain,Light Rain,90,2013-05-24 01:06:00
9:54 PM,64.0,62.1,93,29.73,10.0,East,3.5,-,0.02,,Overcast,80,2013-05-24 01:54:00
10:24 PM,64.4,62.6,94,29.74,10.0,SE,4.6,-,0.00,Rain,Light Rain,140,2013-05-24 02:24:00
10:34 PM,64.4,62.6,94,29.74,10.0,Calm,Calm,-,0.00,,Overcast,0,2013-05-24 02:34:00
10:54 PM,64.0,61.0,90,29.73,10.0,SSW,4.6,-,0.00,,Overcast,200,2013-05-24 02:54:00
11:54 PM,63.0,61.0,93,29.73,10.0,Calm,Calm,-,N/A,,Overcast,0,2013-05-24 03:54:00